sensor_id;sensor_type;location;lat;lon;timestamp;pressure;altitude;pressure_sealevel;temperature
8227;BMP180;4154;48.810;9.012;2024-03-23T00:51:32;96357.00;;;8.60
8227;BMP180;4154;48.810;9.012;2024-03-23T00:53:58;96362.00;;;8.60
8227;BMP180;4154;48.810;9.012;2024-03-23T00:56:23;96354.00;;;8.60
8227;BMP180;4154;48.810;9.012;2024-03-23T00:58:49;96355.00;;;8.60
8227;BMP180;4154;48.810;9.012;2024-03-23T01:01:15;96357.00;;;8.60
8227;BMP180;4154;48.810;9.012;2024-03-23T01:03:41;96341.00;;;8.50
8227;BMP180;4154;48.810;9.012;2024-03-23T01:06:07;96338.00;;;8.50
8227;BMP180;4154;48.810;9.012;2024-03-23T01:08:33;96333.00;;;8.60
8227;BMP180;4154;48.810;9.012;2024-03-23T01:11:00;96310.00;;;8.60
8227;BMP180;4154;48.810;9.012;2024-03-23T01:13:27;96311.00;;;8.60
8227;BMP180;4154;48.810;9.012;2024-03-23T01:15:55;96312.00;;;8.50
8227;BMP180;4154;48.810;9.012;2024-03-23T01:18:22;96305.00;;;8.40
8227;BMP180;4154;48.810;9.012;2024-03-23T01:20:48;96302.00;;;8.20
8227;BMP180;4154;48.810;9.012;2024-03-23T01:23:14;96301.00;;;8.20
8227;BMP180;4154;48.810;9.012;2024-03-23T01:25:40;96296.00;;;8.20
8227;BMP180;4154;48.810;9.012;2024-03-23T01:28:06;96299.00;;;8.20
8227;BMP180;4154;48.810;9.012;2024-03-23T01:30:35;96288.00;;;8.30
8227;BMP180;4154;48.810;9.012;2024-03-23T01:33:02;96295.00;;;8.40
8227;BMP180;4154;48.810;9.012;2024-03-23T01:35:30;96278.00;;;8.40
8227;BMP180;4154;48.810;9.012;2024-03-23T01:37:56;96281.00;;;8.50
8227;BMP180;4154;48.810;9.012;2024-03-23T01:40:22;96283.00;;;8.50
8227;BMP180;4154;48.810;9.012;2024-03-23T01:43:08;96273.00;;;8.60
8227;BMP180;4154;48.810;9.012;2024-03-23T01:45:34;96266.00;;;8.60
8227;BMP180;4154;48.810;9.012;2024-03-23T01:48:01;96272.00;;;8.60
8227;BMP180;4154;48.810;9.012;2024-03-23T01:50:27;96244.00;;;8.70
8227;BMP180;4154;48.810;9.012;2024-03-23T01:52:54;96237.00;;;8.90
8227;BMP180;4154;48.810;9.012;2024-03-23T01:55:20;96242.00;;;9.00
8227;BMP180;4154;48.810;9.012;2024-03-23T01:57:46;96252.00;;;9.10
8227;BMP180;4154;48.810;9.012;2024-03-23T02:00:12;96254.00;;;9.20
8227;BMP180;4154;48.810;9.012;2024-03-23T02:02:45;96243.00;;;9.20
8227;BMP180;4154;48.810;9.012;2024-03-23T02:05:12;96240.00;;;9.30
8227;BMP180;4154;48.810;9.012;2024-03-23T02:07:40;96238.00;;;9.30
8227;BMP180;4154;48.810;9.012;2024-03-23T02:10:07;96246.00;;;9.30
8227;BMP180;4154;48.810;9.012;2024-03-23T02:12:35;96239.00;;;9.40
8227;BMP180;4154;48.810;9.012;2024-03-23T02:15:00;96229.00;;;9.50
8227;BMP180;4154;48.810;9.012;2024-03-23T02:17:29;96222.00;;;9.50
8227;BMP180;4154;48.810;9.012;2024-03-23T02:19:55;96231.00;;;9.50
8227;BMP180;4154;48.810;9.012;2024-03-23T02:22:21;96216.00;;;9.60
8227;BMP180;4154;48.810;9.012;2024-03-23T02:24:47;96217.00;;;9.70
8227;BMP180;4154;48.810;9.012;2024-03-23T02:27:13;96222.00;;;9.60
8227;BMP180;4154;48.810;9.012;2024-03-23T02:29:39;96218.00;;;9.60
8227;BMP180;4154;48.810;9.012;2024-03-23T02:32:05;96203.00;;;9.60
8227;BMP180;4154;48.810;9.012;2024-03-23T02:34:31;96214.00;;;9.50
8227;BMP180;4154;48.810;9.012;2024-03-23T02:36:57;96222.00;;;9.50
8227;BMP180;4154;48.810;9.012;2024-03-23T02:39:22;96204.00;;;9.70
8227;BMP180;4154;48.810;9.012;2024-03-23T02:41:48;96207.00;;;9.70
8227;BMP180;4154;48.810;9.012;2024-03-23T02:44:14;96203.00;;;9.70
8227;BMP180;4154;48.810;9.012;2024-03-23T02:46:40;96203.00;;;9.60
8227;BMP180;4154;48.810;9.012;2024-03-23T02:49:06;96206.00;;;9.60
8227;BMP180;4154;48.810;9.012;2024-03-23T02:51:32;96205.00;;;9.60
8227;BMP180;4154;48.810;9.012;2024-03-23T02:53:58;96209.00;;;9.50
8227;BMP180;4154;48.810;9.012;2024-03-23T02:56:24;96208.00;;;9.60
8227;BMP180;4154;48.810;9.012;2024-03-23T02:58:50;96200.00;;;9.60
8227;BMP180;4154;48.810;9.012;2024-03-23T03:01:15;96208.00;;;9.60
8227;BMP180;4154;48.810;9.012;2024-03-23T03:03:41;96190.00;;;9.60
8227;BMP180;4154;48.810;9.012;2024-03-23T03:06:06;96191.00;;;9.70
8227;BMP180;4154;48.810;9.012;2024-03-23T03:08:32;96189.00;;;9.60
8227;BMP180;4154;48.810;9.012;2024-03-23T03:10:58;96180.00;;;9.60
8227;BMP180;4154;48.810;9.012;2024-03-23T03:13:24;96173.00;;;9.70
8227;BMP180;4154;48.810;9.012;2024-03-23T03:15:49;96172.00;;;9.70
8227;BMP180;4154;48.810;9.012;2024-03-23T03:18:15;96170.00;;;9.70
8227;BMP180;4154;48.810;9.012;2024-03-23T03:20:40;96173.00;;;9.70
8227;BMP180;4154;48.810;9.012;2024-03-23T03:23:07;96167.00;;;9.70
8227;BMP180;4154;48.810;9.012;2024-03-23T03:25:33;96162.00;;;9.60
8227;BMP180;4154;48.810;9.012;2024-03-23T03:28:00;96167.00;;;9.60
8227;BMP180;4154;48.810;9.012;2024-03-23T03:30:25;96161.00;;;9.60
8227;BMP180;4154;48.810;9.012;2024-03-23T03:32:53;96156.00;;;9.50
8227;BMP180;4154;48.810;9.012;2024-03-23T03:35:19;96167.00;;;9.40
8227;BMP180;4154;48.810;9.012;2024-03-23T03:37:44;96160.00;;;9.50
8227;BMP180;4154;48.810;9.012;2024-03-23T03:40:11;96161.00;;;9.50
8227;BMP180;4154;48.810;9.012;2024-03-23T03:42:37;96151.00;;;9.40
8227;BMP180;4154;48.810;9.012;2024-03-23T03:45:04;96149.00;;;9.40
8227;BMP180;4154;48.810;9.012;2024-03-23T03:47:30;96133.00;;;9.40
8227;BMP180;4154;48.810;9.012;2024-03-23T03:49:56;96128.00;;;9.30
8227;BMP180;4154;48.810;9.012;2024-03-23T03:52:22;96120.00;;;9.30
8227;BMP180;4154;48.810;9.012;2024-03-23T03:54:47;96111.00;;;9.20
8227;BMP180;4154;48.810;9.012;2024-03-23T03:57:13;96115.00;;;9.30
8227;BMP180;4154;48.810;9.012;2024-03-23T03:59:39;96106.00;;;9.20
8227;BMP180;4154;48.810;9.012;2024-03-23T04:02:05;96097.00;;;9.20
8227;BMP180;4154;48.810;9.012;2024-03-23T04:04:31;96093.00;;;9.20
8227;BMP180;4154;48.810;9.012;2024-03-23T04:07:01;96088.00;;;9.20
8227;BMP180;4154;48.810;9.012;2024-03-23T04:09:27;96083.00;;;9.10
8227;BMP180;4154;48.810;9.012;2024-03-23T04:11:53;96089.00;;;9.10
8227;BMP180;4154;48.810;9.012;2024-03-23T04:14:19;96089.00;;;9.10
8227;BMP180;4154;48.810;9.012;2024-03-23T04:16:44;96099.00;;;9.10
8227;BMP180;4154;48.810;9.012;2024-03-23T04:19:10;96129.00;;;9.10
8227;BMP180;4154;48.810;9.012;2024-03-23T04:21:37;96168.00;;;9.10
8227;BMP180;4154;48.810;9.012;2024-03-23T04:24:04;96175.00;;;9.20
8227;BMP180;4154;48.810;9.012;2024-03-23T04:26:30;96163.00;;;9.20
8227;BMP180;4154;48.810;9.012;2024-03-23T04:28:56;96167.00;;;9.30
8227;BMP180;4154;48.810;9.012;2024-03-23T04:31:22;96177.00;;;9.40
8227;BMP180;4154;48.810;9.012;2024-03-23T04:33:47;96143.00;;;9.50
8227;BMP180;4154;48.810;9.012;2024-03-23T04:36:13;96159.00;;;9.50
8227;BMP180;4154;48.810;9.012;2024-03-23T04:38:39;96142.00;;;9.50
8227;BMP180;4154;48.810;9.012;2024-03-23T04:41:05;96148.00;;;9.50
8227;BMP180;4154;48.810;9.012;2024-03-23T04:43:30;96156.00;;;9.60
8227;BMP180;4154;48.810;9.012;2024-03-23T04:45:56;96169.00;;;9.50
8227;BMP180;4154;48.810;9.012;2024-03-23T04:48:22;96168.00;;;9.50
8227;BMP180;4154;48.810;9.012;2024-03-23T04:50:49;96158.00;;;9.60
8227;BMP180;4154;48.810;9.012;2024-03-23T04:53:16;96151.00;;;9.50
8227;BMP180;4154;48.810;9.012;2024-03-23T04:55:43;96149.00;;;9.60
8227;BMP180;4154;48.810;9.012;2024-03-23T04:58:09;96146.00;;;9.50
8227;BMP180;4154;48.810;9.012;2024-03-23T05:00:34;96154.00;;;9.30
8227;BMP180;4154;48.810;9.012;2024-03-23T05:03:00;96152.00;;;9.30
8227;BMP180;4154;48.810;9.012;2024-03-23T05:05:25;96156.00;;;9.20
8227;BMP180;4154;48.810;9.012;2024-03-23T05:07:51;96161.00;;;9.20
8227;BMP180;4154;48.810;9.012;2024-03-23T05:10:17;96172.00;;;9.10
8227;BMP180;4154;48.810;9.012;2024-03-23T05:12:43;96169.00;;;9.20
8227;BMP180;4154;48.810;9.012;2024-03-23T05:15:10;96173.00;;;9.20
8227;BMP180;4154;48.810;9.012;2024-03-23T05:17:36;96176.00;;;9.20
8227;BMP180;4154;48.810;9.012;2024-03-23T05:20:03;96186.00;;;9.10
8227;BMP180;4154;48.810;9.012;2024-03-23T05:22:29;96198.00;;;9.20
8227;BMP180;4154;48.810;9.012;2024-03-23T05:24:56;96181.00;;;9.20
8227;BMP180;4154;48.810;9.012;2024-03-23T05:27:21;96177.00;;;9.10
8227;BMP180;4154;48.810;9.012;2024-03-23T05:29:47;96189.00;;;9.10
8227;BMP180;4154;48.810;9.012;2024-03-23T05:32:13;96189.00;;;9.10
8227;BMP180;4154;48.810;9.012;2024-03-23T05:34:38;96178.00;;;9.10
8227;BMP180;4154;48.810;9.012;2024-03-23T05:37:04;96189.00;;;9.00
8227;BMP180;4154;48.810;9.012;2024-03-23T05:39:30;96212.00;;;9.10
8227;BMP180;4154;48.810;9.012;2024-03-23T05:41:56;96227.00;;;8.90
8227;BMP180;4154;48.810;9.012;2024-03-23T05:44:21;96218.00;;;8.80
8227;BMP180;4154;48.810;9.012;2024-03-23T05:46:47;96242.00;;;8.70
8227;BMP180;4154;48.810;9.012;2024-03-23T05:49:15;96223.00;;;8.50
8227;BMP180;4154;48.810;9.012;2024-03-23T05:51:41;96228.00;;;8.50
8227;BMP180;4154;48.810;9.012;2024-03-23T05:54:07;96231.00;;;8.50
8227;BMP180;4154;48.810;9.012;2024-03-23T05:56:32;96221.00;;;8.40
8227;BMP180;4154;48.810;9.012;2024-03-23T05:58:58;96227.00;;;8.30
8227;BMP180;4154;48.810;9.012;2024-03-23T06:01:23;96236.00;;;8.30
8227;BMP180;4154;48.810;9.012;2024-03-23T06:03:49;96217.00;;;8.30
8227;BMP180;4154;48.810;9.012;2024-03-23T06:06:15;96239.00;;;8.30
8227;BMP180;4154;48.810;9.012;2024-03-23T06:08:40;96247.00;;;8.30
8227;BMP180;4154;48.810;9.012;2024-03-23T06:11:06;96259.00;;;8.20
8227;BMP180;4154;48.810;9.012;2024-03-23T06:13:33;96253.00;;;8.20
8227;BMP180;4154;48.810;9.012;2024-03-23T06:16:00;96243.00;;;8.30
8227;BMP180;4154;48.810;9.012;2024-03-23T06:18:26;96248.00;;;8.30
8227;BMP180;4154;48.810;9.012;2024-03-23T06:20:52;96231.00;;;8.20
8227;BMP180;4154;48.810;9.012;2024-03-23T06:23:17;96256.00;;;8.10
8227;BMP180;4154;48.810;9.012;2024-03-23T06:25:46;96245.00;;;8.00
8227;BMP180;4154;48.810;9.012;2024-03-23T06:28:11;96266.00;;;8.10
8227;BMP180;4154;48.810;9.012;2024-03-23T06:30:37;96290.00;;;8.00
8227;BMP180;4154;48.810;9.012;2024-03-23T06:33:03;96289.00;;;7.80
8227;BMP180;4154;48.810;9.012;2024-03-23T06:35:28;96279.00;;;7.80
8227;BMP180;4154;48.810;9.012;2024-03-23T06:37:54;96293.00;;;7.80
8227;BMP180;4154;48.810;9.012;2024-03-23T06:40:20;96295.00;;;7.80
8227;BMP180;4154;48.810;9.012;2024-03-23T06:42:45;96309.00;;;7.80
8227;BMP180;4154;48.810;9.012;2024-03-23T06:45:11;96308.00;;;7.60
8227;BMP180;4154;48.810;9.012;2024-03-23T06:47:37;96321.00;;;7.60
8227;BMP180;4154;48.810;9.012;2024-03-23T06:50:03;96338.00;;;7.80
8227;BMP180;4154;48.810;9.012;2024-03-23T06:52:30;96331.00;;;7.60
8227;BMP180;4154;48.810;9.012;2024-03-23T06:54:57;96360.00;;;7.60
8227;BMP180;4154;48.810;9.012;2024-03-23T06:57:23;96338.00;;;7.60
8227;BMP180;4154;48.810;9.012;2024-03-23T06:59:48;96346.00;;;7.70
8227;BMP180;4154;48.810;9.012;2024-03-23T07:02:14;96368.00;;;7.80
8227;BMP180;4154;48.810;9.012;2024-03-23T07:04:41;96380.00;;;7.70
8227;BMP180;4154;48.810;9.012;2024-03-23T07:07:07;96387.00;;;7.60
8227;BMP180;4154;48.810;9.012;2024-03-23T07:09:33;96374.00;;;7.70
8227;BMP180;4154;48.810;9.012;2024-03-23T07:11:58;96383.00;;;7.70
8227;BMP180;4154;48.810;9.012;2024-03-23T07:14:24;96389.00;;;7.70
8227;BMP180;4154;48.810;9.012;2024-03-23T07:16:51;96397.00;;;7.50
8227;BMP180;4154;48.810;9.012;2024-03-23T07:19:17;96392.00;;;7.60
8227;BMP180;4154;48.810;9.012;2024-03-23T07:21:44;96392.00;;;7.60
8227;BMP180;4154;48.810;9.012;2024-03-23T07:24:10;96392.00;;;7.50
8227;BMP180;4154;48.810;9.012;2024-03-23T07:26:36;96395.00;;;7.50
8227;BMP180;4154;48.810;9.012;2024-03-23T07:29:04;96391.00;;;7.40
8227;BMP180;4154;48.810;9.012;2024-03-23T07:31:29;96390.00;;;7.40
8227;BMP180;4154;48.810;9.012;2024-03-23T07:33:55;96411.00;;;7.40
8227;BMP180;4154;48.810;9.012;2024-03-23T07:36:21;96431.00;;;7.40
8227;BMP180;4154;48.810;9.012;2024-03-23T07:38:46;96435.00;;;7.40
8227;BMP180;4154;48.810;9.012;2024-03-23T07:41:16;96443.00;;;7.50
8227;BMP180;4154;48.810;9.012;2024-03-23T07:43:46;96436.00;;;7.50
8227;BMP180;4154;48.810;9.012;2024-03-23T07:46:14;96441.00;;;7.30
8227;BMP180;4154;48.810;9.012;2024-03-23T07:48:40;96451.00;;;7.10
8227;BMP180;4154;48.810;9.012;2024-03-23T07:51:17;96463.00;;;7.00
8227;BMP180;4154;48.810;9.012;2024-03-23T07:53:44;96475.00;;;6.90
8227;BMP180;4154;48.810;9.012;2024-03-23T07:56:15;96471.00;;;6.90
8227;BMP180;4154;48.810;9.012;2024-03-23T07:58:42;96464.00;;;6.80
8227;BMP180;4154;48.810;9.012;2024-03-23T08:01:10;96479.00;;;6.90
8227;BMP180;4154;48.810;9.012;2024-03-23T08:03:38;96471.00;;;6.80
8227;BMP180;4154;48.810;9.012;2024-03-23T08:06:14;96480.00;;;6.90
8227;BMP180;4154;48.810;9.012;2024-03-23T08:08:42;96496.00;;;6.90
8227;BMP180;4154;48.810;9.012;2024-03-23T08:11:08;96503.00;;;6.90
8227;BMP180;4154;48.810;9.012;2024-03-23T08:13:35;96517.00;;;7.00
8227;BMP180;4154;48.810;9.012;2024-03-23T08:16:03;96523.00;;;7.20
8227;BMP180;4154;48.810;9.012;2024-03-23T08:18:30;96523.00;;;7.20
8227;BMP180;4154;48.810;9.012;2024-03-23T08:21:05;96512.00;;;7.30
8227;BMP180;4154;48.810;9.012;2024-03-23T08:23:33;96527.00;;;7.20
8227;BMP180;4154;48.810;9.012;2024-03-23T08:26:02;96527.00;;;7.20
8227;BMP180;4154;48.810;9.012;2024-03-23T08:28:28;96530.00;;;7.00
8227;BMP180;4154;48.810;9.012;2024-03-23T08:30:55;96545.00;;;7.10
8227;BMP180;4154;48.810;9.012;2024-03-23T08:33:22;96560.00;;;7.10
8227;BMP180;4154;48.810;9.012;2024-03-23T08:36:06;96577.00;;;7.00
8227;BMP180;4154;48.810;9.012;2024-03-23T08:38:32;96569.00;;;7.20
8227;BMP180;4154;48.810;9.012;2024-03-23T08:41:06;96580.00;;;7.10
8227;BMP180;4154;48.810;9.012;2024-03-23T08:43:36;96574.00;;;7.20
8227;BMP180;4154;48.810;9.012;2024-03-23T08:46:11;96563.00;;;7.20
8227;BMP180;4154;48.810;9.012;2024-03-23T08:48:40;96553.00;;;7.20
8227;BMP180;4154;48.810;9.012;2024-03-23T08:51:08;96561.00;;;7.40
8227;BMP180;4154;48.810;9.012;2024-03-23T08:53:38;96560.00;;;7.50
8227;BMP180;4154;48.810;9.012;2024-03-23T08:56:06;96567.00;;;7.60
8227;BMP180;4154;48.810;9.012;2024-03-23T08:58:33;96565.00;;;7.70
8227;BMP180;4154;48.810;9.012;2024-03-23T09:01:12;96595.00;;;7.80
8227;BMP180;4154;48.810;9.012;2024-03-23T09:03:39;96585.00;;;7.90
8227;BMP180;4154;48.810;9.012;2024-03-23T09:06:10;96619.00;;;7.80
8227;BMP180;4154;48.810;9.012;2024-03-23T09:08:36;96605.00;;;7.80
8227;BMP180;4154;48.810;9.012;2024-03-23T09:11:13;96604.00;;;7.90
8227;BMP180;4154;48.810;9.012;2024-03-23T09:13:39;96604.00;;;7.80
8227;BMP180;4154;48.810;9.012;2024-03-23T09:16:07;96605.00;;;7.90
8227;BMP180;4154;48.810;9.012;2024-03-23T09:18:36;96623.00;;;7.80
8227;BMP180;4154;48.810;9.012;2024-03-23T09:21:03;96612.00;;;7.70
8227;BMP180;4154;48.810;9.012;2024-03-23T09:23:28;96625.00;;;7.60
8227;BMP180;4154;48.810;9.012;2024-03-23T09:25:54;96623.00;;;7.50
8227;BMP180;4154;48.810;9.012;2024-03-23T09:28:20;96623.00;;;7.70
8227;BMP180;4154;48.810;9.012;2024-03-23T09:30:46;96616.00;;;7.70
8227;BMP180;4154;48.810;9.012;2024-03-23T09:33:13;96611.00;;;7.70
8227;BMP180;4154;48.810;9.012;2024-03-23T09:35:43;96608.00;;;7.80
8227;BMP180;4154;48.810;9.012;2024-03-23T09:38:10;96613.00;;;8.00
8227;BMP180;4154;48.810;9.012;2024-03-23T09:40:43;96608.00;;;7.90
8227;BMP180;4154;48.810;9.012;2024-03-23T09:43:09;96619.00;;;8.00
8227;BMP180;4154;48.810;9.012;2024-03-23T09:45:45;96606.00;;;8.20
8227;BMP180;4154;48.810;9.012;2024-03-23T09:48:12;96625.00;;;8.20
8227;BMP180;4154;48.810;9.012;2024-03-23T09:50:39;96614.00;;;8.10
8227;BMP180;4154;48.810;9.012;2024-03-23T09:53:10;96610.00;;;8.30
8227;BMP180;4154;48.810;9.012;2024-03-23T09:55:38;96626.00;;;8.30
8227;BMP180;4154;48.810;9.012;2024-03-23T09:58:04;96628.00;;;8.30
8227;BMP180;4154;48.810;9.012;2024-03-23T10:00:31;96624.00;;;8.20
8227;BMP180;4154;48.810;9.012;2024-03-23T10:02:58;96609.00;;;8.10
8227;BMP180;4154;48.810;9.012;2024-03-23T10:05:29;96601.00;;;7.90
8227;BMP180;4154;48.810;9.012;2024-03-23T10:07:55;96602.00;;;7.80
8227;BMP180;4154;48.810;9.012;2024-03-23T10:10:21;96615.00;;;7.70
8227;BMP180;4154;48.810;9.012;2024-03-23T10:12:49;96605.00;;;7.70
8227;BMP180;4154;48.810;9.012;2024-03-23T10:15:21;96594.00;;;7.80
8227;BMP180;4154;48.810;9.012;2024-03-23T10:17:47;96596.00;;;8.00
8227;BMP180;4154;48.810;9.012;2024-03-23T10:20:19;96598.00;;;8.30
8227;BMP180;4154;48.810;9.012;2024-03-23T10:22:46;96593.00;;;8.50
8227;BMP180;4154;48.810;9.012;2024-03-23T10:25:12;96610.00;;;8.70
8227;BMP180;4154;48.810;9.012;2024-03-23T10:27:39;96595.00;;;8.70
8227;BMP180;4154;48.810;9.012;2024-03-23T10:30:13;96603.00;;;8.60
8227;BMP180;4154;48.810;9.012;2024-03-23T10:32:42;96611.00;;;8.60
8227;BMP180;4154;48.810;9.012;2024-03-23T10:35:19;96620.00;;;8.50
8227;BMP180;4154;48.810;9.012;2024-03-23T10:37:46;96628.00;;;8.20
8227;BMP180;4154;48.810;9.012;2024-03-23T10:40:13;96636.00;;;8.00
8227;BMP180;4154;48.810;9.012;2024-03-23T10:42:39;96676.00;;;7.60
8227;BMP180;4154;48.810;9.012;2024-03-23T10:45:06;96669.00;;;7.00
8227;BMP180;4154;48.810;9.012;2024-03-23T10:47:34;96673.00;;;6.90
8227;BMP180;4154;48.810;9.012;2024-03-23T10:50:01;96691.00;;;6.50
8227;BMP180;4154;48.810;9.012;2024-03-23T10:52:27;96715.00;;;6.10
8227;BMP180;4154;48.810;9.012;2024-03-23T10:54:53;96711.00;;;5.70
8227;BMP180;4154;48.810;9.012;2024-03-23T10:57:26;96707.00;;;5.50
8227;BMP180;4154;48.810;9.012;2024-03-23T10:59:56;96725.00;;;5.50
8227;BMP180;4154;48.810;9.012;2024-03-23T11:02:22;96693.00;;;5.50
8227;BMP180;4154;48.810;9.012;2024-03-23T11:04:48;96683.00;;;5.60
8227;BMP180;4154;48.810;9.012;2024-03-23T11:07:33;96694.00;;;5.60
8227;BMP180;4154;48.810;9.012;2024-03-23T11:10:00;96683.00;;;5.50
8227;BMP180;4154;48.810;9.012;2024-03-23T11:12:30;96685.00;;;5.70
8227;BMP180;4154;48.810;9.012;2024-03-23T11:15:02;96688.00;;;6.00
8227;BMP180;4154;48.810;9.012;2024-03-23T11:17:29;96683.00;;;5.90
8227;BMP180;4154;48.810;9.012;2024-03-23T11:19:57;96684.00;;;6.10
8227;BMP180;4154;48.810;9.012;2024-03-23T11:22:46;96675.00;;;6.30
8227;BMP180;4154;48.810;9.012;2024-03-23T11:25:23;96680.00;;;6.50
8227;BMP180;4154;48.810;9.012;2024-03-23T11:28:14;96681.00;;;6.70
8227;BMP180;4154;48.810;9.012;2024-03-23T11:30:41;96683.00;;;6.80
8227;BMP180;4154;48.810;9.012;2024-03-23T11:33:08;96676.00;;;6.90
8227;BMP180;4154;48.810;9.012;2024-03-23T11:35:43;96677.00;;;7.10
8227;BMP180;4154;48.810;9.012;2024-03-23T11:38:17;96664.00;;;7.10
8227;BMP180;4154;48.810;9.012;2024-03-23T11:40:49;96654.00;;;7.10
8227;BMP180;4154;48.810;9.012;2024-03-23T11:43:17;96658.00;;;7.20
8227;BMP180;4154;48.810;9.012;2024-03-23T11:45:52;96661.00;;;7.30
8227;BMP180;4154;48.810;9.012;2024-03-23T11:48:22;96654.00;;;7.20
8227;BMP180;4154;48.810;9.012;2024-03-23T11:50:53;96655.00;;;7.20
8227;BMP180;4154;48.810;9.012;2024-03-23T11:53:21;96652.00;;;7.10
8227;BMP180;4154;48.810;9.012;2024-03-23T11:55:56;96643.00;;;7.20
8227;BMP180;4154;48.810;9.012;2024-03-23T11:58:27;96647.00;;;7.20
8227;BMP180;4154;48.810;9.012;2024-03-23T12:00:59;96654.00;;;7.10
8227;BMP180;4154;48.810;9.012;2024-03-23T12:03:26;96638.00;;;7.20
8227;BMP180;4154;48.810;9.012;2024-03-23T12:06:04;96625.00;;;7.30
8227;BMP180;4154;48.810;9.012;2024-03-23T12:08:35;96625.00;;;7.50
8227;BMP180;4154;48.810;9.012;2024-03-23T12:11:12;96627.00;;;7.50
8227;BMP180;4154;48.810;9.012;2024-03-23T12:13:39;96636.00;;;7.60
8227;BMP180;4154;48.810;9.012;2024-03-23T12:16:24;96638.00;;;7.50
8227;BMP180;4154;48.810;9.012;2024-03-23T12:18:50;96618.00;;;7.30
8227;BMP180;4154;48.810;9.012;2024-03-23T12:21:19;96628.00;;;7.30
8227;BMP180;4154;48.810;9.012;2024-03-23T12:23:45;96618.00;;;7.30
8227;BMP180;4154;48.810;9.012;2024-03-23T12:26:12;96615.00;;;7.50
8227;BMP180;4154;48.810;9.012;2024-03-23T12:28:38;96619.00;;;7.70
8227;BMP180;4154;48.810;9.012;2024-03-23T12:31:04;96607.00;;;7.70
8227;BMP180;4154;48.810;9.012;2024-03-23T12:33:31;96622.00;;;7.70
8227;BMP180;4154;48.810;9.012;2024-03-23T12:35:57;96615.00;;;7.70
8227;BMP180;4154;48.810;9.012;2024-03-23T12:38:22;96618.00;;;7.80
8227;BMP180;4154;48.810;9.012;2024-03-23T12:40:51;96626.00;;;7.80
8227;BMP180;4154;48.810;9.012;2024-03-23T12:43:18;96620.00;;;8.00
8227;BMP180;4154;48.810;9.012;2024-03-23T12:45:47;96621.00;;;8.20
8227;BMP180;4154;48.810;9.012;2024-03-23T12:48:13;96625.00;;;8.30
8227;BMP180;4154;48.810;9.012;2024-03-23T12:50:39;96625.00;;;8.30
8227;BMP180;4154;48.810;9.012;2024-03-23T12:53:04;96623.00;;;8.40
8227;BMP180;4154;48.810;9.012;2024-03-23T12:55:30;96610.00;;;8.50
8227;BMP180;4154;48.810;9.012;2024-03-23T12:57:56;96607.00;;;8.70
8227;BMP180;4154;48.810;9.012;2024-03-23T13:00:22;96602.00;;;8.80
8227;BMP180;4154;48.810;9.012;2024-03-23T13:02:48;96610.00;;;9.00
8227;BMP180;4154;48.810;9.012;2024-03-23T13:05:14;96600.00;;;9.10
8227;BMP180;4154;48.810;9.012;2024-03-23T13:07:40;96601.00;;;9.20
8227;BMP180;4154;48.810;9.012;2024-03-23T13:10:06;96597.00;;;9.20
8227;BMP180;4154;48.810;9.012;2024-03-23T13:12:32;96593.00;;;9.20
8227;BMP180;4154;48.810;9.012;2024-03-23T13:14:59;96590.00;;;9.10
8227;BMP180;4154;48.810;9.012;2024-03-23T13:17:27;96578.00;;;8.80
8227;BMP180;4154;48.810;9.012;2024-03-23T13:19:54;96574.00;;;8.60
8227;BMP180;4154;48.810;9.012;2024-03-23T13:22:20;96572.00;;;8.60
8227;BMP180;4154;48.810;9.012;2024-03-23T13:24:46;96565.00;;;8.60
8227;BMP180;4154;48.810;9.012;2024-03-23T13:27:12;96561.00;;;8.80
8227;BMP180;4154;48.810;9.012;2024-03-23T13:29:37;96547.00;;;9.00
8227;BMP180;4154;48.810;9.012;2024-03-23T13:32:03;96543.00;;;9.20
8227;BMP180;4154;48.810;9.012;2024-03-23T13:34:29;96558.00;;;9.40
8227;BMP180;4154;48.810;9.012;2024-03-23T13:36:55;96541.00;;;9.50
8227;BMP180;4154;48.810;9.012;2024-03-23T13:39:24;96553.00;;;9.60
8227;BMP180;4154;48.810;9.012;2024-03-23T13:41:50;96564.00;;;9.90
8227;BMP180;4154;48.810;9.012;2024-03-23T13:44:16;96560.00;;;10.10
8227;BMP180;4154;48.810;9.012;2024-03-23T13:46:43;96558.00;;;10.20
8227;BMP180;4154;48.810;9.012;2024-03-23T13:49:29;96560.00;;;9.70
8227;BMP180;4154;48.810;9.012;2024-03-23T13:51:57;96596.00;;;9.50
8227;BMP180;4154;48.810;9.012;2024-03-23T13:54:26;96612.00;;;9.10
8227;BMP180;4154;48.810;9.012;2024-03-23T13:56:55;96627.00;;;8.70
8227;BMP180;4154;48.810;9.012;2024-03-23T13:59:21;96634.00;;;7.80
8227;BMP180;4154;48.810;9.012;2024-03-23T14:01:48;96646.00;;;7.10
8227;BMP180;4154;48.810;9.012;2024-03-23T14:04:14;96669.00;;;6.60
8227;BMP180;4154;48.810;9.012;2024-03-23T14:06:42;96681.00;;;6.00
8227;BMP180;4154;48.810;9.012;2024-03-23T14:09:10;96680.00;;;5.50
8227;BMP180;4154;48.810;9.012;2024-03-23T14:11:37;96674.00;;;5.20
8227;BMP180;4154;48.810;9.012;2024-03-23T14:14:04;96676.00;;;5.00
8227;BMP180;4154;48.810;9.012;2024-03-23T14:16:32;96666.00;;;5.10
8227;BMP180;4154;48.810;9.012;2024-03-23T14:18:59;96648.00;;;5.10
8227;BMP180;4154;48.810;9.012;2024-03-23T14:21:25;96640.00;;;5.20
8227;BMP180;4154;48.810;9.012;2024-03-23T14:23:51;96629.00;;;5.40
8227;BMP180;4154;48.810;9.012;2024-03-23T14:26:16;96613.00;;;5.70
8227;BMP180;4154;48.810;9.012;2024-03-23T14:28:42;96594.00;;;5.80
8227;BMP180;4154;48.810;9.012;2024-03-23T14:31:08;96586.00;;;6.00
8227;BMP180;4154;48.810;9.012;2024-03-23T14:33:39;96577.00;;;6.40
8227;BMP180;4154;48.810;9.012;2024-03-23T14:36:13;96583.00;;;6.60
8227;BMP180;4154;48.810;9.012;2024-03-23T14:38:39;96595.00;;;6.90
8227;BMP180;4154;48.810;9.012;2024-03-23T14:41:06;96595.00;;;6.90
8227;BMP180;4154;48.810;9.012;2024-03-23T14:43:32;96593.00;;;6.90
8227;BMP180;4154;48.810;9.012;2024-03-23T14:46:12;96592.00;;;6.80
8227;BMP180;4154;48.810;9.012;2024-03-23T14:48:43;96605.00;;;6.50
8227;BMP180;4154;48.810;9.012;2024-03-23T14:51:12;96612.00;;;6.60
8227;BMP180;4154;48.810;9.012;2024-03-23T14:53:45;96617.00;;;6.40
8227;BMP180;4154;48.810;9.012;2024-03-23T14:56:11;96611.00;;;6.30
8227;BMP180;4154;48.810;9.012;2024-03-23T14:58:38;96633.00;;;6.00
8227;BMP180;4154;48.810;9.012;2024-03-23T15:01:08;96619.00;;;5.80
8227;BMP180;4154;48.810;9.012;2024-03-23T15:03:38;96626.00;;;5.70
8227;BMP180;4154;48.810;9.012;2024-03-23T15:06:06;96613.00;;;5.90
8227;BMP180;4154;48.810;9.012;2024-03-23T15:08:33;96619.00;;;6.00
8227;BMP180;4154;48.810;9.012;2024-03-23T15:11:01;96626.00;;;6.00
8227;BMP180;4154;48.810;9.012;2024-03-23T15:13:38;96616.00;;;6.10
8227;BMP180;4154;48.810;9.012;2024-03-23T15:16:05;96607.00;;;6.20
8227;BMP180;4154;48.810;9.012;2024-03-23T15:18:34;96587.00;;;6.30
8227;BMP180;4154;48.810;9.012;2024-03-23T15:21:03;96594.00;;;6.50
8227;BMP180;4154;48.810;9.012;2024-03-23T15:23:30;96597.00;;;6.60
8227;BMP180;4154;48.810;9.012;2024-03-23T15:26:01;96582.00;;;6.70
8227;BMP180;4154;48.810;9.012;2024-03-23T15:28:29;96560.00;;;6.90
8227;BMP180;4154;48.810;9.012;2024-03-23T15:31:21;96560.00;;;6.90
8227;BMP180;4154;48.810;9.012;2024-03-23T15:33:46;96573.00;;;7.10
8227;BMP180;4154;48.810;9.012;2024-03-23T15:36:12;96572.00;;;7.00
8227;BMP180;4154;48.810;9.012;2024-03-23T15:38:38;96560.00;;;7.10
8227;BMP180;4154;48.810;9.012;2024-03-23T15:41:04;96569.00;;;7.30